createdAt,value
2018-08-23T00:00:44.444Z,8.10
2018-08-23T00:03:48.850Z,9.53
2018-08-23T00:07:00.433Z,9.27
2018-08-23T00:10:04.845Z,9.07
2018-08-23T00:13:09.260Z,8.70
2018-08-23T00:16:13.967Z,8.87
2018-08-23T00:19:18.477Z,7.97
2018-08-23T00:22:27.116Z,11.50
2018-08-23T00:25:32.689Z,12.87
2018-08-23T00:28:37.217Z,14.37
2018-08-23T00:31:41.989Z,10.20
2018-08-23T00:34:46.437Z,9.83
2018-08-23T00:37:50.795Z,9.03
2018-08-23T00:40:55.288Z,6.97
2018-08-23T00:43:59.666Z,8.47
2018-08-23T00:47:04.338Z,6.90
2018-08-23T00:50:08.993Z,6.40
2018-08-23T00:53:13.377Z,5.53
2018-08-23T00:56:23.665Z,6.67
2018-08-23T00:59:28.140Z,5.73
2018-08-23T01:02:32.815Z,5.53
2018-08-23T01:05:38.581Z,6.87
2018-08-23T01:08:43.052Z,6.33
2018-08-23T01:11:47.771Z,6.63
2018-08-23T01:14:53.244Z,8.33
2018-08-23T01:18:13.168Z,6.83
2018-08-23T01:21:23.758Z,8.70
2018-08-23T01:24:31.648Z,7.80
2018-08-23T01:27:38.187Z,7.23
2018-08-23T01:30:42.957Z,7.80
2018-08-23T01:33:47.595Z,8.37
2018-08-23T01:36:52.005Z,6.77
2018-08-23T01:39:56.463Z,7.43
2018-08-23T01:43:00.998Z,7.80
2018-08-23T01:46:05.350Z,8.58
2018-08-23T01:49:09.820Z,10.27
2018-08-23T01:52:14.321Z,7.70
2018-08-23T01:55:19.781Z,6.47
2018-08-23T01:58:24.178Z,7.20
2018-08-23T02:01:36.853Z,7.60
2018-08-23T02:04:41.187Z,8.10
2018-08-23T02:07:45.549Z,8.17
2018-08-23T02:10:49.893Z,9.73
2018-08-23T02:13:54.229Z,7.53
2018-08-23T02:16:58.631Z,10.00
2018-08-23T02:20:03.069Z,7.77
2018-08-23T02:23:07.447Z,7.23
2018-08-23T02:26:12.007Z,8.67
2018-08-23T02:29:20.801Z,8.50
2018-08-23T02:32:25.153Z,6.60
2018-08-23T02:35:29.563Z,6.27
2018-08-23T02:38:34.651Z,5.97
2018-08-23T02:41:41.378Z,6.17
2018-08-23T02:44:46.918Z,7.60
2018-08-23T02:47:51.202Z,6.50
2018-08-23T02:50:55.582Z,7.70
2018-08-23T02:53:59.950Z,6.30
2018-08-23T02:57:08.881Z,6.23
2018-08-23T03:00:13.338Z,6.17
2018-08-23T03:03:17.927Z,6.50
2018-08-23T03:06:30.646Z,6.10
2018-08-23T03:09:36.228Z,6.70
2018-08-23T03:12:40.992Z,5.40
2018-08-23T03:15:46.818Z,5.58
2018-08-23T03:18:51.324Z,5.73
2018-08-23T03:22:01.029Z,6.03
2018-08-23T03:25:07.122Z,5.33
2018-08-23T03:28:12.150Z,7.37
2018-08-23T03:31:17.120Z,6.80
2018-08-23T03:34:21.454Z,5.30
2018-08-23T03:37:26.351Z,6.13
2018-08-23T03:40:30.769Z,5.23
2018-08-23T03:43:35.135Z,7.03
2018-08-23T03:46:53.557Z,6.20
2018-08-23T03:49:57.956Z,6.10
2018-08-23T03:53:02.367Z,5.93
2018-08-23T03:56:09.682Z,5.40
2018-08-23T03:59:14.066Z,5.60
2018-08-23T04:02:20.278Z,5.20
2018-08-23T04:05:24.657Z,8.83
2018-08-23T04:08:29.166Z,9.10
2018-08-23T04:11:33.544Z,5.93
2018-08-23T04:14:38.398Z,5.17
2018-08-23T04:17:42.770Z,6.90
2018-08-23T04:20:55.599Z,9.27
2018-08-23T04:24:03.704Z,8.47
2018-08-23T04:27:08.841Z,11.63
2018-08-23T04:30:13.211Z,7.03
2018-08-23T04:33:17.576Z,9.03
2018-08-23T04:36:30.319Z,7.13
2018-08-23T04:39:34.886Z,8.33
2018-08-23T04:42:39.282Z,10.07
2018-08-23T04:45:43.626Z,6.27
2018-08-23T04:48:50.992Z,6.45
2018-08-23T04:51:55.403Z,5.97
2018-08-23T04:54:59.939Z,6.67
2018-08-23T04:58:04.978Z,6.80
2018-08-23T05:01:09.358Z,6.93
2018-08-23T05:04:13.841Z,5.93
2018-08-23T05:07:18.230Z,10.10
2018-08-23T05:10:22.869Z,5.47
2018-08-23T05:13:27.332Z,5.30
2018-08-23T05:16:31.702Z,7.53
2018-08-23T05:19:36.034Z,5.57
2018-08-23T05:22:46.947Z,4.63
2018-08-23T05:25:56.021Z,5.10
2018-08-23T05:29:04.366Z,4.87
2018-08-23T05:32:08.715Z,7.83
2018-08-23T05:35:13.081Z,5.60
2018-08-23T05:38:18.469Z,6.60
2018-08-23T05:41:22.983Z,6.40
2018-08-23T05:44:27.490Z,5.10
2018-08-23T05:47:32.664Z,6.63
2018-08-23T05:50:39.085Z,4.27
2018-08-23T05:53:50.756Z,4.57
2018-08-23T05:56:55.221Z,5.67
2018-08-23T05:59:59.666Z,5.07
2018-08-23T06:03:04.817Z,4.60
2018-08-23T06:06:10.011Z,5.77
2018-08-23T06:09:16.563Z,21.43
2018-08-23T06:12:21.335Z,30.00
2018-08-23T06:15:25.789Z,19.47
2018-08-23T06:18:32.597Z,11.80
2018-08-23T06:21:36.979Z,13.73
2018-08-23T06:24:41.495Z,22.37
2018-08-23T06:27:45.942Z,27.93
2018-08-23T06:30:55.287Z,19.93
2018-08-23T06:34:00.418Z,16.00
2018-08-23T06:37:04.877Z,12.83
2018-08-23T06:40:09.368Z,19.53
2018-08-23T06:43:13.941Z,12.87
2018-08-23T06:46:20.315Z,9.20
2018-08-23T06:49:24.777Z,9.63
2018-08-23T06:53:01.475Z,17.57
2018-08-23T06:56:05.890Z,14.33
2018-08-23T06:59:11.574Z,9.93
2018-08-23T07:02:16.452Z,14.73
2018-08-23T07:05:21.074Z,5.97
2018-08-23T07:08:25.449Z,4.57
2018-08-23T07:11:30.127Z,7.47
2018-08-23T07:14:35.918Z,3.53
2018-08-23T07:17:40.579Z,3.37
2018-08-23T07:20:44.854Z,3.47
2018-08-23T07:23:49.251Z,4.93
2018-08-23T07:26:53.679Z,6.50
2018-08-23T07:29:59.102Z,3.53
2018-08-23T07:33:03.646Z,3.70
2018-08-23T07:36:30.659Z,3.30
2018-08-23T07:39:35.334Z,4.10
2018-08-23T07:42:40.929Z,3.60
2018-08-23T07:45:45.347Z,3.45
2018-08-23T07:48:49.724Z,4.33
2018-08-23T07:51:54.302Z,3.50
2018-08-23T07:55:00.154Z,5.20
2018-08-23T07:58:04.670Z,3.30
2018-08-23T08:01:10.676Z,3.87
2018-08-23T08:04:15.708Z,3.50
2018-08-23T08:07:25.910Z,5.63
2018-08-23T08:10:37.016Z,3.53
2018-08-23T08:13:41.513Z,3.60
2018-08-23T08:16:46.253Z,3.10
2018-08-23T08:19:56.579Z,3.90
2018-08-23T08:23:01.730Z,4.37
2018-08-23T08:26:06.364Z,2.97
2018-08-23T08:29:11.155Z,3.37
2018-08-23T08:32:17.539Z,3.83
2018-08-23T08:35:22.107Z,3.07
2018-08-23T08:38:26.541Z,3.37
2018-08-23T08:41:38.116Z,3.63
2018-08-23T08:44:42.545Z,5.10
2018-08-23T08:47:47.634Z,3.77
2018-08-23T08:51:14.342Z,3.40
2018-08-23T08:54:18.992Z,4.47
2018-08-23T08:57:29.622Z,5.07
2018-08-23T09:00:53.580Z,3.43
2018-08-23T09:03:58.116Z,4.00
2018-08-23T09:07:02.538Z,5.03
2018-08-23T09:10:07.248Z,5.27
2018-08-23T09:13:11.705Z,5.40
2018-08-23T09:16:16.629Z,4.43
2018-08-23T09:19:21.220Z,8.00
2018-08-23T09:22:25.714Z,6.43
2018-08-23T09:25:35.308Z,5.97
2018-08-23T09:28:39.726Z,3.60
2018-08-23T09:31:44.205Z,5.70
2018-08-23T09:34:49.023Z,4.73
2018-08-23T09:37:56.775Z,3.87
2018-08-23T09:41:01.303Z,4.47
2018-08-23T09:44:06.069Z,4.57
2018-08-23T09:47:10.502Z,5.80
2018-08-23T09:50:15.068Z,4.20
2018-08-23T09:53:25.179Z,3.73
2018-08-23T09:56:29.607Z,4.77
2018-08-23T09:59:37.502Z,6.10
2018-08-23T10:02:47.037Z,5.17
2018-08-23T10:05:56.888Z,5.08
2018-08-23T10:09:15.554Z,4.30
2018-08-23T10:12:25.154Z,4.67
2018-08-23T10:15:35.951Z,3.77
2018-08-23T10:18:46.737Z,5.87
2018-08-23T10:21:56.486Z,4.27
2018-08-23T10:25:05.189Z,5.23
2018-08-23T10:28:11.910Z,4.13
2018-08-23T10:31:16.439Z,5.03
2018-08-23T10:34:20.915Z,6.97
2018-08-23T10:37:25.512Z,4.60
2018-08-23T10:40:30.131Z,5.40
2018-08-23T10:43:39.968Z,3.90
2018-08-23T10:46:49.908Z,4.30
2018-08-23T10:49:54.514Z,4.03
2018-08-23T10:52:59.052Z,3.40
2018-08-23T10:56:03.670Z,4.70
2018-08-23T10:59:08.514Z,5.43
2018-08-23T11:02:12.985Z,4.37
2018-08-23T11:05:17.829Z,5.33
2018-08-23T11:08:25.215Z,4.77
2018-08-23T11:11:32.642Z,5.17
2018-08-23T11:14:41.081Z,4.17
2018-08-23T11:17:51.234Z,4.57
2018-08-23T11:20:55.733Z,4.53
2018-08-23T11:24:00.307Z,4.90
2018-08-23T11:27:04.759Z,4.63
2018-08-23T11:30:09.222Z,4.10
2018-08-23T11:33:13.755Z,5.15
2018-08-23T11:36:19.326Z,4.70
2018-08-23T11:39:24.344Z,4.05
2018-08-23T11:42:28.930Z,4.70
2018-08-23T11:45:33.896Z,4.67
2018-08-23T11:48:38.491Z,4.90
2018-08-23T11:51:42.954Z,4.67
2018-08-23T11:54:47.510Z,4.60
2018-08-23T11:57:52.079Z,5.27
2018-08-23T12:01:01.878Z,5.27
2018-08-23T12:04:06.634Z,4.13
2018-08-23T12:07:11.062Z,4.30
2018-08-23T12:10:18.239Z,4.60
2018-08-23T12:13:22.613Z,5.40
2018-08-23T12:16:27.147Z,4.23
2018-08-23T12:19:31.636Z,6.77
2018-08-23T12:22:43.958Z,4.53
2018-08-23T12:25:48.626Z,6.30
2018-08-23T12:28:58.317Z,4.87
2018-08-23T12:32:03.115Z,5.90
2018-08-23T12:35:07.936Z,7.17
2018-08-23T12:38:20.534Z,4.73
2018-08-23T12:41:30.875Z,4.33
2018-08-23T12:44:48.308Z,4.13
2018-08-23T12:47:52.785Z,4.33
2018-08-23T12:50:59.761Z,5.43
2018-08-23T12:54:04.519Z,4.73
2018-08-23T12:57:09.197Z,3.90
2018-08-23T13:00:13.590Z,4.47
2018-08-23T13:03:18.269Z,4.77
2018-08-23T13:06:22.671Z,8.23
2018-08-23T13:09:27.096Z,7.27
2018-08-23T13:12:31.561Z,6.73
2018-08-23T13:15:36.317Z,5.17
2018-08-23T13:18:41.062Z,6.00
2018-08-23T13:21:49.793Z,4.73
2018-08-23T13:24:59.538Z,5.70
2018-08-23T13:28:04.651Z,10.23
2018-08-23T13:31:09.264Z,7.20
2018-08-23T13:34:13.993Z,5.33
2018-08-23T13:37:24.354Z,5.30
2018-08-23T13:40:31.557Z,4.87
2018-08-23T13:43:36.265Z,7.83
2018-08-23T13:46:40.503Z,7.20
2018-08-23T13:49:45.337Z,5.50
2018-08-23T13:52:49.892Z,5.33
2018-08-23T13:55:56.207Z,5.63
2018-08-23T13:59:01.314Z,10.87
2018-08-23T14:02:05.721Z,5.70
2018-08-23T14:05:10.755Z,7.90
2018-08-23T14:08:15.158Z,6.97
2018-08-23T14:11:19.597Z,8.97
2018-08-23T14:14:24.483Z,6.10
2018-08-23T14:17:28.985Z,9.53
2018-08-23T14:20:33.379Z,13.00
2018-08-23T14:23:37.832Z,16.93
2018-08-23T14:26:42.240Z,10.80
2018-08-23T14:29:47.228Z,11.03
2018-08-23T14:32:51.976Z,14.57
2018-08-23T14:35:57.505Z,15.17
2018-08-23T14:39:01.918Z,9.20
2018-08-23T14:42:06.621Z,9.90
2018-08-23T14:45:11.138Z,5.22
2018-08-23T14:48:17.427Z,4.37
2018-08-23T14:51:21.884Z,5.57
2018-08-23T14:54:31.448Z,7.63
2018-08-23T14:57:37.087Z,7.87
2018-08-23T15:00:41.621Z,7.43
2018-08-23T15:03:46.082Z,8.83
2018-08-23T15:06:50.533Z,6.17
2018-08-23T15:09:55.345Z,7.87
2018-08-23T15:13:00.509Z,6.23
2018-08-23T15:16:05.066Z,10.57
2018-08-23T15:19:09.718Z,7.63
2018-08-23T15:22:14.115Z,8.03
2018-08-23T15:25:18.513Z,10.80
2018-08-23T15:28:22.903Z,10.43
2018-08-23T15:31:27.490Z,7.90
2018-08-23T15:34:32.048Z,6.80
2018-08-23T15:37:36.595Z,6.80
2018-08-23T15:40:41.068Z,6.37
2018-08-23T15:43:45.777Z,7.20
2018-08-23T15:46:50.270Z,9.23
2018-08-23T15:49:55.466Z,10.80
2018-08-23T15:53:00.163Z,10.17
2018-08-23T15:56:04.858Z,11.03
2018-08-23T15:59:09.451Z,10.17
2018-08-23T16:02:14.026Z,8.73
2018-08-23T16:05:18.755Z,9.23
2018-08-23T16:08:23.241Z,9.47
2018-08-23T16:11:28.114Z,9.60
2018-08-23T16:14:33.542Z,7.40
2018-08-23T16:17:43.422Z,6.90
2018-08-23T16:20:52.863Z,10.43
2018-08-23T16:23:57.906Z,7.77
2018-08-23T16:27:05.490Z,18.27
2018-08-23T16:30:10.073Z,20.70
2018-08-23T16:33:14.529Z,14.17
2018-08-23T16:36:19.105Z,12.07
2018-08-23T16:39:23.796Z,15.50
2018-08-23T16:42:28.461Z,28.60
2018-08-23T16:45:32.894Z,11.37
2018-08-23T16:48:37.460Z,11.00
2018-08-23T16:51:42.357Z,11.40
2018-08-23T16:54:47.038Z,8.10
2018-08-23T16:57:53.645Z,8.23
2018-08-23T17:00:58.967Z,9.97
2018-08-23T17:04:03.478Z,11.20
2018-08-23T17:07:08.541Z,10.73
2018-08-23T17:10:13.513Z,9.43
2018-08-23T17:13:24.327Z,9.83
2018-08-23T17:16:34.593Z,8.90
2018-08-23T17:19:49.046Z,10.83
2018-08-23T17:22:53.894Z,10.73
2018-08-23T17:25:58.645Z,8.50
2018-08-23T17:29:03.223Z,8.57
2018-08-23T17:32:08.349Z,9.43
2018-08-23T17:35:12.863Z,12.83
2018-08-23T17:38:17.514Z,9.07
2018-08-23T17:41:21.910Z,8.77
2018-08-23T17:44:26.421Z,6.00
2018-08-23T17:47:31.065Z,4.67
2018-08-23T17:50:35.967Z,5.77
2018-08-23T17:53:41.796Z,6.60
2018-08-23T17:56:46.386Z,5.37
2018-08-23T17:59:51.031Z,5.10
2018-08-23T18:02:55.430Z,5.07
2018-08-23T18:05:59.901Z,5.27
2018-08-23T18:09:07.001Z,5.17
2018-08-23T18:12:11.667Z,4.70
2018-08-23T18:15:16.250Z,4.60
2018-08-23T18:18:22.821Z,4.50
2018-08-23T18:21:28.182Z,12.43
2018-08-23T18:24:33.198Z,9.40
2018-08-23T18:27:52.891Z,9.83
2018-08-23T18:30:57.703Z,7.17
2018-08-23T18:34:03.883Z,5.57
2018-08-23T18:37:08.470Z,6.70
2018-08-23T18:40:13.752Z,5.17
2018-08-23T18:43:18.271Z,4.40
2018-08-23T18:46:23.931Z,7.40
2018-08-23T18:49:29.539Z,5.50
2018-08-23T18:52:34.151Z,8.53
2018-08-23T18:55:38.740Z,12.37
2018-08-23T18:58:43.620Z,12.73
2018-08-23T19:01:48.298Z,16.30
2018-08-23T19:04:53.385Z,6.83
2018-08-23T19:07:57.976Z,17.37
2018-08-23T19:11:02.403Z,7.73
2018-08-23T19:14:06.830Z,9.13
2018-08-23T19:17:17.665Z,16.50
2018-08-23T19:20:22.102Z,10.97
2018-08-23T19:23:26.698Z,12.35
2018-08-23T19:26:31.204Z,10.80
2018-08-23T19:29:35.966Z,5.62
2018-08-23T19:32:40.380Z,4.70
2018-08-23T19:35:44.804Z,5.10
2018-08-23T19:38:49.229Z,5.57
2018-08-23T19:41:54.424Z,5.83
2018-08-23T19:45:00.889Z,6.73
2018-08-23T19:48:05.632Z,6.10
2018-08-23T19:51:10.029Z,5.23
2018-08-23T19:54:14.536Z,6.47
2018-08-23T19:57:19.458Z,5.23
2018-08-23T20:00:24.114Z,8.60
2018-08-23T20:03:28.898Z,10.83
2018-08-23T20:06:33.399Z,12.57
2018-08-23T20:09:38.080Z,6.57
2018-08-23T20:12:42.650Z,5.00
2018-08-23T20:15:47.053Z,4.10
2018-08-23T20:18:51.609Z,5.27
2018-08-23T20:21:56.480Z,6.73
2018-08-23T20:25:01.029Z,7.67
2018-08-23T20:28:05.765Z,7.90
2018-08-23T20:31:10.230Z,10.20
2018-08-23T20:34:14.634Z,6.40
2018-08-23T20:37:19.201Z,5.00
2018-08-23T20:40:23.746Z,4.60
2018-08-23T20:43:28.155Z,4.67
2018-08-23T20:46:32.658Z,4.40
2018-08-23T20:49:37.162Z,3.60
2018-08-23T20:52:41.858Z,5.87
2018-08-23T20:55:49.442Z,4.25
2018-08-23T20:58:54.165Z,5.87
2018-08-23T21:01:58.762Z,5.47
2018-08-23T21:05:03.223Z,4.23
2018-08-23T21:08:07.962Z,3.67
2018-08-23T21:11:12.505Z,4.47
2018-08-23T21:14:16.961Z,5.27
2018-08-23T21:17:21.601Z,8.80
2018-08-23T21:20:26.048Z,8.23
2018-08-23T21:23:30.603Z,4.43
2018-08-23T21:26:35.168Z,4.90
2018-08-23T21:29:40.057Z,9.60
2018-08-23T21:32:44.428Z,6.13
2018-08-23T21:35:48.946Z,4.93
2018-08-23T21:38:53.306Z,3.57
2018-08-23T21:41:57.687Z,7.60
2018-08-23T21:45:02.047Z,9.47
2018-08-23T21:48:06.816Z,7.03
2018-08-23T21:51:11.632Z,4.17
2018-08-23T21:54:16.137Z,4.43
2018-08-23T21:57:20.549Z,3.43
2018-08-23T22:00:24.927Z,5.10
2018-08-23T22:03:29.445Z,3.40
2018-08-23T22:06:33.952Z,3.00
2018-08-23T22:09:38.592Z,3.07
2018-08-23T22:12:42.871Z,4.83
2018-08-23T22:15:49.433Z,5.17
2018-08-23T22:18:54.099Z,8.13
2018-08-23T22:21:58.550Z,7.63
2018-08-23T22:25:03.034Z,9.40
2018-08-23T22:28:07.926Z,13.87
2018-08-23T22:31:12.441Z,14.33
2018-08-23T22:34:18.009Z,12.78
2018-08-23T22:37:22.483Z,7.93
2018-08-23T22:40:27.219Z,6.97
2018-08-23T22:43:32.198Z,4.10
2018-08-23T22:46:36.895Z,7.33
2018-08-23T22:49:41.311Z,4.40
2018-08-23T22:52:45.727Z,5.57
2018-08-23T22:55:50.442Z,5.20
2018-08-23T22:58:54.932Z,4.85
2018-08-23T23:01:59.425Z,4.60
2018-08-23T23:05:03.999Z,3.10
2018-08-23T23:08:08.820Z,5.90
2018-08-23T23:11:13.287Z,3.80
2018-08-23T23:14:24.385Z,5.77
2018-08-23T23:17:29.382Z,14.50
2018-08-23T23:20:33.767Z,10.43
2018-08-23T23:23:38.186Z,9.57
2018-08-23T23:26:42.633Z,11.73
2018-08-23T23:29:47.306Z,15.77
2018-08-23T23:32:51.765Z,15.53
2018-08-23T23:35:56.469Z,18.45
2018-08-23T23:39:01.031Z,19.73
2018-08-23T23:42:05.969Z,22.47
2018-08-23T23:45:10.427Z,13.35
2018-08-23T23:48:14.801Z,7.87
2018-08-23T23:51:19.314Z,6.10
2018-08-23T23:54:23.699Z,11.40
2018-08-23T23:57:29.069Z,11.90
